createdAt,value
2023-05-19T00:01:16.690Z,77.85
2023-05-19T00:03:55.897Z,78.92
2023-05-19T00:06:26.750Z,78.13
2023-05-19T00:09:06.067Z,77.93
2023-05-19T00:11:36.256Z,77.79
2023-05-19T00:14:06.500Z,77.31
2023-05-19T00:16:34.513Z,77.29
2023-05-19T00:19:03.477Z,77.11
2023-05-19T00:21:31.282Z,77.07
2023-05-19T00:23:58.502Z,77.05
2023-05-19T00:26:27.132Z,76.92
2023-05-19T00:28:54.554Z,77.33
2023-05-19T00:31:21.575Z,77.11
2023-05-19T00:33:48.522Z,77.30
2023-05-19T00:36:15.521Z,77.19
2023-05-19T00:38:42.378Z,77.35
2023-05-19T00:41:09.346Z,77.05
2023-05-19T00:43:36.293Z,77.60
2023-05-19T00:46:03.653Z,77.42
2023-05-19T00:48:30.484Z,77.00
2023-05-19T00:51:04.096Z,77.41
2023-05-19T00:53:34.016Z,77.11
2023-05-19T00:56:02.138Z,77.49
2023-05-19T00:58:31.029Z,77.58
2023-05-19T01:01:03.456Z,77.68
2023-05-19T01:03:35.534Z,77.79
2023-05-19T01:06:05.116Z,77.79
2023-05-19T01:08:33.535Z,78.31
2023-05-19T01:11:00.830Z,78.17
2023-05-19T01:13:28.733Z,78.56
2023-05-19T01:16:12.215Z,78.29
2023-05-19T01:18:49.933Z,78.05
2023-05-19T01:21:44.842Z,78.35
2023-05-19T01:24:53.451Z,78.03
2023-05-19T01:28:12.311Z,78.64
2023-05-19T01:30:40.312Z,78.08
2023-05-19T01:33:11.032Z,78.08
2023-05-19T01:35:39.922Z,78.05
2023-05-19T01:38:10.758Z,78.27
2023-05-19T01:40:39.804Z,78.73
2023-05-19T01:43:09.876Z,78.71
2023-05-19T01:45:37.455Z,78.84
2023-05-19T01:48:06.341Z,78.62
2023-05-19T01:50:34.810Z,78.47
2023-05-19T01:53:01.880Z,78.52
2023-05-19T01:55:28.730Z,78.05
2023-05-19T01:58:00.608Z,78.18
2023-05-19T02:00:45.492Z,78.26
2023-05-19T02:03:47.506Z,78.31
2023-05-19T02:06:32.852Z,77.85
2023-05-19T02:09:08.490Z,77.47
2023-05-19T02:11:45.904Z,77.79
2023-05-19T02:14:24.236Z,77.31
2023-05-19T02:16:52.428Z,77.39
2023-05-19T02:19:30.113Z,77.35
2023-05-19T02:21:57.004Z,77.70
2023-05-19T02:24:23.981Z,77.80
2023-05-19T02:26:52.899Z,77.58
2023-05-19T02:29:20.659Z,77.34
2023-05-19T02:31:47.741Z,77.36
2023-05-19T02:34:14.887Z,77.45
2023-05-19T02:36:45.532Z,77.04
2023-05-19T02:39:12.904Z,77.35
2023-05-19T02:41:39.830Z,76.92
2023-05-19T02:44:07.479Z,76.95
2023-05-19T02:46:34.541Z,77.09
2023-05-19T02:49:01.364Z,77.37
2023-05-19T02:51:28.257Z,77.53
2023-05-19T02:53:55.101Z,77.87
2023-05-19T02:56:22.118Z,78.04
2023-05-19T02:58:48.954Z,77.92
2023-05-19T03:01:16.489Z,78.08
2023-05-19T03:03:43.498Z,78.05
2023-05-19T03:06:10.437Z,78.33
2023-05-19T03:08:38.432Z,78.64
2023-05-19T03:11:06.448Z,78.68
2023-05-19T03:13:33.484Z,78.53
2023-05-19T03:16:00.343Z,79.15
2023-05-19T03:18:27.245Z,79.36
2023-05-19T03:20:54.150Z,79.05
2023-05-19T03:23:22.465Z,79.36
2023-05-19T03:25:49.302Z,79.66
2023-05-19T03:28:17.151Z,79.59
2023-05-19T03:30:44.129Z,79.82
2023-05-19T03:33:11.203Z,79.98
2023-05-19T03:35:38.245Z,79.90
2023-05-19T03:38:05.109Z,80.75
2023-05-19T03:40:32.140Z,81.01
2023-05-19T03:43:00.977Z,81.25
2023-05-19T03:45:28.422Z,80.94
2023-05-19T03:47:56.500Z,80.84
2023-05-19T03:50:23.459Z,81.00
2023-05-19T03:52:50.302Z,81.22
2023-05-19T03:55:20.225Z,81.78
2023-05-19T03:57:47.317Z,81.64
2023-05-19T04:00:15.069Z,81.33
2023-05-19T04:02:42.074Z,82.13
2023-05-19T04:05:09.706Z,82.06
2023-05-19T04:07:36.756Z,82.59
2023-05-19T04:10:07.746Z,82.53
2023-05-19T04:12:34.540Z,82.51
2023-05-19T04:15:01.521Z,82.62
2023-05-19T04:17:28.585Z,83.10
2023-05-19T04:19:56.028Z,83.49
2023-05-19T04:22:23.006Z,83.64
2023-05-19T04:24:53.082Z,83.36
2023-05-19T04:27:20.191Z,83.44
2023-05-19T04:29:48.423Z,84.04
2023-05-19T04:32:17.921Z,84.07
2023-05-19T04:34:47.639Z,83.69
2023-05-19T04:37:16.266Z,83.70
2023-05-19T04:39:45.289Z,84.03
2023-05-19T04:42:13.455Z,84.81
2023-05-19T04:44:40.827Z,85.24
2023-05-19T04:47:09.194Z,85.51
2023-05-19T04:49:41.508Z,85.44
2023-05-19T04:52:11.149Z,85.78
2023-05-19T04:54:40.335Z,85.89
2023-05-19T04:57:08.059Z,86.32
2023-05-19T04:59:35.209Z,86.30
2023-05-19T05:02:02.284Z,85.87
2023-05-19T05:04:29.220Z,85.94
2023-05-19T05:06:56.229Z,85.90
2023-05-19T05:09:23.255Z,85.79
2023-05-19T05:11:52.054Z,85.51
2023-05-19T05:14:19.555Z,85.68
2023-05-19T05:16:47.392Z,85.57
2023-05-19T05:19:14.856Z,85.53
2023-05-19T05:21:44.363Z,85.47
2023-05-19T05:24:12.397Z,85.45
2023-05-19T05:26:39.698Z,85.65
2023-05-19T05:29:09.283Z,85.16
2023-05-19T05:31:37.110Z,85.36
2023-05-19T05:34:04.219Z,85.37
2023-05-19T05:36:31.695Z,84.74
2023-05-19T05:38:59.512Z,85.10
2023-05-19T05:41:27.318Z,84.79
2023-05-19T05:43:54.711Z,85.33
2023-05-19T05:46:21.725Z,85.05
2023-05-19T05:48:49.513Z,85.30
2023-05-19T05:51:16.899Z,85.19
2023-05-19T05:53:51.934Z,85.13
2023-05-19T05:56:19.586Z,85.18
2023-05-19T05:58:46.636Z,84.93
2023-05-19T06:01:13.741Z,85.04
2023-05-19T06:03:44.977Z,84.60
2023-05-19T06:06:13.446Z,84.07
2023-05-19T06:08:40.650Z,84.39
2023-05-19T06:11:11.795Z,84.55
2023-05-19T06:13:41.437Z,84.89
2023-05-19T06:16:09.281Z,83.93
2023-05-19T06:18:36.710Z,84.04
2023-05-19T06:21:03.954Z,83.91
2023-05-19T06:23:31.412Z,84.17
2023-05-19T06:25:58.579Z,83.02
2023-05-19T06:28:25.984Z,83.37
2023-05-19T06:30:53.047Z,83.07
2023-05-19T06:33:21.653Z,83.34
2023-05-19T06:35:48.912Z,83.00
2023-05-19T06:38:16.342Z,84.03
2023-05-19T06:40:43.829Z,84.23
2023-05-19T06:43:10.955Z,83.64
2023-05-19T06:45:38.108Z,84.18
2023-05-19T06:48:06.390Z,84.20
2023-05-19T06:50:34.181Z,84.69
2023-05-19T06:53:03.135Z,83.74
2023-05-19T06:55:31.002Z,84.50
2023-05-19T06:57:59.904Z,84.78
2023-05-19T07:00:27.237Z,84.63
2023-05-19T07:02:54.977Z,84.67
2023-05-19T07:05:22.299Z,84.64
2023-05-19T07:07:49.308Z,84.78
2023-05-19T07:10:16.266Z,84.45
2023-05-19T07:12:43.633Z,84.55
2023-05-19T07:15:11.028Z,84.33
2023-05-19T07:17:37.987Z,84.58
2023-05-19T07:20:10.065Z,84.64
2023-05-19T07:22:39.756Z,84.56
2023-05-19T07:25:08.763Z,84.37
2023-05-19T07:27:36.710Z,83.99
2023-05-19T07:30:06.278Z,84.33
2023-05-19T07:32:33.386Z,84.46
2023-05-19T07:35:00.863Z,83.65
2023-05-19T07:37:28.099Z,83.66
2023-05-19T07:39:58.015Z,84.16
2023-05-19T07:42:25.211Z,84.36
2023-05-19T07:44:52.684Z,84.35
2023-05-19T07:47:20.566Z,84.47
2023-05-19T07:49:50.338Z,83.58
2023-05-19T07:52:19.103Z,84.19
2023-05-19T07:54:46.517Z,83.84
2023-05-19T07:57:14.593Z,83.66
2023-05-19T07:59:41.578Z,84.09
2023-05-19T08:02:08.962Z,84.01
2023-05-19T08:04:36.269Z,83.84
2023-05-19T08:07:04.108Z,83.80
2023-05-19T08:09:31.202Z,84.18
2023-05-19T08:11:58.558Z,84.19
2023-05-19T08:14:26.364Z,84.45
2023-05-19T08:16:53.693Z,83.81
2023-05-19T08:19:20.974Z,83.80
2023-05-19T08:21:48.404Z,83.83
2023-05-19T08:24:15.948Z,83.23
2023-05-19T08:26:44.467Z,82.76
2023-05-19T08:29:11.826Z,83.58
2023-05-19T08:31:39.380Z,83.58
2023-05-19T08:34:07.017Z,83.72
2023-05-19T08:36:33.950Z,83.48
2023-05-19T08:39:01.569Z,83.01
2023-05-19T08:41:28.658Z,83.06
2023-05-19T08:43:55.869Z,83.17
2023-05-19T08:46:26.243Z,83.51
2023-05-19T08:49:12.446Z,82.05
2023-05-19T08:51:53.870Z,82.95
2023-05-19T08:54:25.795Z,82.59
2023-05-19T08:56:52.837Z,82.02
2023-05-19T08:59:22.092Z,82.28
2023-05-19T09:01:51.556Z,81.06
2023-05-19T09:04:21.003Z,81.53
2023-05-19T09:06:48.951Z,82.61
2023-05-19T09:09:17.466Z,81.75
2023-05-19T09:11:47.188Z,80.63
2023-05-19T09:14:14.572Z,80.50
2023-05-19T09:16:45.907Z,82.11
2023-05-19T09:19:17.717Z,81.80
2023-05-19T09:21:45.985Z,81.70
2023-05-19T09:24:13.749Z,81.06
2023-05-19T09:26:43.028Z,81.96
2023-05-19T09:29:17.635Z,80.67
2023-05-19T09:31:56.175Z,80.72
2023-05-19T09:34:25.021Z,81.89
2023-05-19T09:36:54.190Z,81.12
2023-05-19T09:39:26.065Z,82.57
2023-05-19T09:41:55.420Z,81.71
2023-05-19T09:44:29.992Z,81.83
2023-05-19T09:46:59.946Z,81.42
2023-05-19T09:49:33.010Z,81.26
2023-05-19T09:52:04.333Z,80.37
2023-05-19T09:54:34.551Z,81.94
2023-05-19T09:57:04.161Z,82.34
2023-05-19T09:59:33.748Z,81.39
2023-05-19T10:02:03.416Z,81.96
2023-05-19T10:04:31.659Z,80.74
2023-05-19T10:07:00.106Z,80.72
2023-05-19T10:09:30.336Z,79.58
2023-05-19T10:12:02.194Z,80.82
2023-05-19T10:14:31.710Z,79.54
2023-05-19T10:16:59.458Z,80.25
2023-05-19T10:19:29.220Z,79.20
2023-05-19T10:21:57.634Z,80.06
2023-05-19T10:24:25.033Z,81.01
2023-05-19T10:27:05.044Z,78.72
2023-05-19T10:29:37.017Z,78.86
2023-05-19T10:32:15.917Z,79.73
2023-05-19T10:35:29.632Z,79.68
2023-05-19T10:38:44.605Z,80.28
2023-05-19T10:41:27.333Z,79.67
2023-05-19T10:44:12.751Z,78.88
2023-05-19T10:46:43.255Z,79.56
2023-05-19T10:49:10.533Z,79.35
2023-05-19T10:51:37.708Z,79.60
2023-05-19T10:54:11.033Z,76.71
2023-05-19T10:56:42.641Z,79.30
2023-05-19T10:59:36.138Z,78.15
2023-05-19T11:02:05.725Z,76.25
2023-05-19T11:04:54.398Z,77.40
2023-05-19T11:07:22.398Z,78.70
2023-05-19T11:09:52.397Z,77.44
2023-05-19T11:12:25.577Z,77.51
2023-05-19T11:14:58.131Z,77.53
2023-05-19T11:17:25.917Z,77.36
2023-05-19T11:19:57.661Z,74.97
2023-05-19T11:22:27.472Z,75.88
2023-05-19T11:24:58.234Z,76.18
2023-05-19T11:27:33.857Z,76.71
2023-05-19T11:30:11.809Z,78.14
2023-05-19T11:32:39.736Z,77.03
2023-05-19T11:35:08.356Z,75.97
2023-05-19T11:37:35.951Z,76.21
2023-05-19T11:40:07.491Z,75.99
2023-05-19T11:42:37.074Z,75.22
2023-05-19T11:45:08.486Z,75.77
2023-05-19T11:47:50.923Z,76.46
2023-05-19T11:50:24.735Z,76.14
2023-05-19T11:52:53.670Z,76.24
2023-05-19T11:55:22.365Z,76.11
2023-05-19T11:58:03.914Z,75.49
2023-05-19T12:00:39.267Z,75.35
2023-05-19T12:03:09.097Z,76.37
2023-05-19T12:05:47.099Z,74.61
2023-05-19T12:08:17.675Z,75.84
2023-05-19T12:10:48.942Z,75.69
2023-05-19T12:13:16.277Z,76.31
2023-05-19T12:15:43.375Z,75.75
2023-05-19T12:18:10.886Z,75.58
2023-05-19T12:20:38.270Z,75.29
2023-05-19T12:23:05.928Z,76.10
2023-05-19T12:25:34.096Z,75.38
2023-05-19T12:28:03.888Z,75.05
2023-05-19T12:30:33.195Z,76.76
2023-05-19T12:33:03.985Z,75.67
2023-05-19T12:35:36.382Z,73.67
2023-05-19T12:38:10.159Z,76.53
2023-05-19T12:40:39.587Z,74.11
2023-05-19T12:43:09.863Z,73.88
2023-05-19T12:45:38.382Z,73.81
2023-05-19T12:48:11.383Z,74.47
2023-05-19T12:50:38.796Z,74.38
2023-05-19T12:53:12.767Z,75.21
2023-05-19T12:55:45.132Z,75.03
2023-05-19T12:58:13.453Z,74.71
2023-05-19T13:00:47.485Z,76.02
2023-05-19T13:03:20.097Z,74.81
2023-05-19T13:05:50.566Z,74.86
2023-05-19T13:08:21.731Z,74.97
2023-05-19T13:10:52.051Z,74.84
2023-05-19T13:13:19.576Z,74.43
2023-05-19T13:15:50.793Z,76.30
2023-05-19T13:18:18.311Z,75.53
2023-05-19T13:20:47.017Z,74.71
2023-05-19T13:23:16.308Z,75.47
2023-05-19T13:25:43.567Z,74.30
2023-05-19T13:28:11.034Z,74.66
2023-05-19T13:30:42.030Z,76.07
2023-05-19T13:33:09.676Z,75.14
2023-05-19T13:35:37.910Z,75.72
2023-05-19T13:38:10.485Z,74.58
2023-05-19T13:40:39.630Z,75.05
2023-05-19T13:43:07.999Z,75.01
2023-05-19T13:45:35.163Z,74.64
2023-05-19T13:48:02.836Z,74.69
2023-05-19T13:50:32.212Z,74.61
2023-05-19T13:52:59.315Z,74.40
2023-05-19T13:55:27.592Z,73.68
2023-05-19T13:57:54.824Z,73.69
2023-05-19T14:00:22.182Z,74.10
2023-05-19T14:02:49.430Z,73.84
2023-05-19T14:05:18.513Z,73.80
2023-05-19T14:07:46.373Z,73.62
2023-05-19T14:10:14.977Z,74.20
2023-05-19T14:13:07.895Z,74.35
2023-05-19T14:15:30.265Z,73.90
2023-05-19T14:17:59.204Z,73.58
2023-05-19T14:20:27.924Z,73.52
2023-05-19T14:22:56.321Z,73.87
2023-05-19T14:25:25.170Z,74.25
2023-05-19T14:27:52.387Z,74.14
2023-05-19T14:30:19.695Z,73.93
2023-05-19T14:32:46.984Z,73.83
2023-05-19T14:35:14.338Z,73.88
2023-05-19T14:37:41.426Z,72.61
2023-05-19T14:40:09.138Z,72.98
2023-05-19T14:42:35.976Z,73.49
2023-05-19T14:45:02.917Z,73.63
2023-05-19T14:47:29.872Z,73.72
2023-05-19T14:49:56.833Z,73.72
2023-05-19T14:52:23.661Z,73.05
2023-05-19T14:54:50.706Z,72.64
2023-05-19T14:57:17.593Z,72.33
2023-05-19T14:59:44.479Z,72.53
2023-05-19T15:02:12.003Z,72.10
2023-05-19T15:04:39.053Z,72.77
2023-05-19T15:07:10.106Z,73.39
2023-05-19T15:09:37.492Z,73.91
2023-05-19T15:12:04.462Z,73.64
2023-05-19T15:14:31.620Z,74.10
2023-05-19T15:16:59.171Z,73.50
2023-05-19T15:19:26.413Z,73.73
2023-05-19T15:21:53.570Z,73.67
2023-05-19T15:24:20.489Z,73.45
2023-05-19T15:26:47.548Z,74.48
2023-05-19T15:29:14.630Z,74.08
2023-05-19T15:31:41.766Z,74.18
2023-05-19T15:34:08.830Z,74.13
2023-05-19T15:36:35.680Z,74.24
2023-05-19T15:39:03.682Z,74.15
2023-05-19T15:41:30.752Z,73.51
2023-05-19T15:44:00.091Z,74.43
2023-05-19T15:46:27.231Z,74.43
2023-05-19T15:48:54.868Z,73.34
2023-05-19T15:51:22.109Z,74.00
2023-05-19T15:53:48.952Z,73.68
2023-05-19T15:56:16.058Z,73.75
2023-05-19T15:58:43.462Z,73.89
2023-05-19T16:01:10.667Z,74.83
2023-05-19T16:03:38.057Z,74.95
2023-05-19T16:06:05.836Z,75.87
2023-05-19T16:08:32.814Z,76.19
2023-05-19T16:11:00.630Z,75.04
2023-05-19T16:13:30.350Z,75.25
2023-05-19T16:16:02.475Z,75.04
2023-05-19T16:18:30.604Z,74.95
2023-05-19T16:20:59.170Z,75.83
2023-05-19T16:23:27.335Z,75.41
2023-05-19T16:25:55.197Z,75.71
2023-05-19T16:28:24.492Z,75.27
2023-05-19T16:30:51.765Z,74.74
2023-05-19T16:33:19.142Z,74.81
2023-05-19T16:35:46.038Z,74.00
2023-05-19T16:38:13.053Z,74.78
2023-05-19T16:40:40.029Z,75.32
2023-05-19T16:43:06.853Z,75.19
2023-05-19T16:45:33.778Z,74.84
2023-05-19T16:48:00.836Z,74.67
2023-05-19T16:50:27.804Z,74.57
2023-05-19T16:52:54.643Z,74.48
2023-05-19T16:55:22.619Z,74.33
2023-05-19T16:57:49.586Z,75.25
2023-05-19T17:00:16.824Z,75.23
2023-05-19T17:02:44.499Z,76.35
2023-05-19T17:05:11.497Z,75.96
2023-05-19T17:07:38.344Z,76.25
2023-05-19T17:10:05.881Z,76.33
2023-05-19T17:12:32.793Z,76.72
2023-05-19T17:14:59.873Z,76.18
2023-05-19T17:17:26.853Z,76.18
2023-05-19T17:19:53.851Z,76.20
2023-05-19T17:22:20.740Z,76.46
2023-05-19T17:24:47.970Z,76.47
2023-05-19T17:27:15.104Z,76.84
2023-05-19T17:29:42.770Z,77.67
2023-05-19T17:32:10.700Z,76.85
2023-05-19T17:34:40.927Z,77.42
2023-05-19T17:37:08.136Z,77.80
2023-05-19T17:39:35.964Z,77.66
2023-05-19T17:42:03.117Z,77.49
2023-05-19T17:44:31.210Z,77.25
2023-05-19T17:46:58.954Z,77.01
2023-05-19T17:49:27.485Z,76.92
2023-05-19T17:51:55.108Z,76.96
2023-05-19T17:54:26.227Z,77.50
2023-05-19T17:56:57.220Z,77.67
2023-05-19T17:59:25.673Z,78.18
2023-05-19T18:01:53.234Z,77.89
2023-05-19T18:04:20.803Z,78.23
2023-05-19T18:06:50.215Z,79.32
2023-05-19T18:09:21.575Z,79.12
2023-05-19T18:11:48.544Z,78.76
2023-05-19T18:14:15.783Z,79.03
2023-05-19T18:16:43.206Z,79.10
2023-05-19T18:19:10.608Z,79.20
2023-05-19T18:21:38.308Z,79.65
2023-05-19T18:24:07.194Z,80.10
2023-05-19T18:26:34.449Z,80.44
2023-05-19T18:29:05.058Z,80.70
2023-05-19T18:31:35.410Z,80.95
2023-05-19T18:34:04.988Z,80.67
2023-05-19T18:36:35.875Z,81.63
2023-05-19T18:39:04.702Z,83.83
2023-05-19T18:41:32.102Z,83.39
2023-05-19T18:43:59.182Z,83.87
2023-05-19T18:46:26.478Z,83.93
2023-05-19T18:48:54.133Z,84.44
2023-05-19T18:51:22.506Z,84.85
2023-05-19T18:53:51.979Z,85.88
2023-05-19T18:56:31.196Z,86.89
2023-05-19T18:58:58.493Z,86.76
2023-05-19T19:01:25.562Z,87.43
2023-05-19T19:03:52.564Z,87.53
2023-05-19T19:06:24.519Z,87.72
2023-05-19T19:08:53.087Z,88.38
2023-05-19T19:11:21.669Z,87.61
2023-05-19T19:13:51.471Z,87.84
2023-05-19T19:16:18.752Z,88.50
2023-05-19T19:18:45.986Z,88.30
2023-05-19T19:21:14.913Z,88.81
2023-05-19T19:23:42.685Z,89.14
2023-05-19T19:26:09.850Z,88.70
2023-05-19T19:28:37.311Z,89.98
2023-05-19T19:31:04.241Z,89.79
2023-05-19T19:33:32.070Z,89.97
2023-05-19T19:36:00.659Z,90.88
2023-05-19T19:38:27.607Z,90.42
2023-05-19T19:40:54.691Z,91.90
2023-05-19T19:43:21.597Z,92.81
2023-05-19T19:45:48.541Z,92.00
2023-05-19T19:48:15.508Z,92.40
2023-05-19T19:50:42.432Z,92.89
2023-05-19T19:53:09.702Z,96.39
2023-05-19T19:55:38.040Z,94.99
2023-05-19T19:58:04.985Z,95.96
2023-05-19T20:00:32.181Z,96.08
2023-05-19T20:05:28.928Z,95.56
2023-05-19T20:07:55.835Z,95.45
2023-05-19T20:10:22.845Z,95.95
2023-05-19T20:12:50.646Z,96.30
2023-05-19T20:15:17.784Z,97.00
2023-05-19T20:17:46.322Z,97.85
2023-05-19T20:20:13.949Z,98.01
2023-05-19T20:22:41.034Z,97.61
2023-05-19T20:25:08.649Z,97.75
2023-05-19T20:27:36.619Z,98.57
2023-05-19T20:30:04.889Z,98.03
2023-05-19T20:32:31.820Z,98.05
2023-05-19T20:34:58.841Z,98.96
2023-05-19T20:37:25.913Z,98.74
2023-05-19T20:39:52.856Z,99.33
2023-05-19T20:42:19.728Z,99.98
2023-05-19T20:44:46.586Z,99.53
2023-05-19T20:47:13.492Z,99.21
2023-05-19T20:49:40.466Z,99.86
2023-05-19T20:52:07.449Z,99.76
2023-05-19T20:54:34.304Z,100.00
2023-05-19T20:57:06.347Z,100.00
2023-05-19T20:59:33.425Z,100.00
2023-05-19T21:02:00.383Z,100.00
2023-05-19T21:04:27.435Z,100.00
2023-05-19T21:06:55.859Z,100.00
2023-05-19T21:09:22.831Z,100.00
2023-05-19T21:11:53.059Z,100.00
2023-05-19T21:14:20.875Z,100.00
2023-05-19T21:16:49.014Z,100.00
2023-05-19T21:19:16.221Z,100.00
2023-05-19T21:21:44.808Z,100.00
2023-05-19T21:24:12.900Z,100.00
2023-05-19T21:26:41.090Z,100.00
2023-05-19T21:29:08.930Z,100.00
2023-05-19T21:31:37.235Z,100.00
2023-05-19T21:34:05.169Z,100.00
2023-05-19T21:36:32.018Z,100.00
2023-05-19T21:38:58.953Z,100.00
2023-05-19T21:41:25.972Z,100.00
2023-05-19T21:43:53.063Z,100.00
2023-05-19T21:46:20.029Z,100.00
2023-05-19T21:48:46.953Z,100.00
2023-05-19T21:51:13.785Z,100.00
2023-05-19T21:53:41.042Z,100.00
2023-05-19T21:56:07.993Z,100.00
2023-05-19T21:58:34.988Z,100.00
2023-05-19T22:01:02.096Z,100.00
2023-05-19T22:03:29.146Z,100.00
2023-05-19T22:05:56.577Z,100.00
2023-05-19T22:08:23.539Z,100.00
2023-05-19T22:10:51.722Z,100.00
2023-05-19T22:13:21.752Z,100.00
2023-05-19T22:15:48.810Z,100.00
2023-05-19T22:18:15.757Z,100.00
2023-05-19T22:20:43.189Z,100.00
2023-05-19T22:23:10.815Z,100.00
2023-05-19T22:25:37.706Z,100.00
2023-05-19T22:28:07.418Z,100.00
2023-05-19T22:30:41.119Z,100.00
2023-05-19T22:33:10.471Z,100.00
2023-05-19T22:35:37.572Z,100.00
2023-05-19T22:38:07.504Z,100.00
2023-05-19T22:40:36.671Z,100.00
2023-05-19T22:43:03.688Z,100.00
2023-05-19T22:45:31.537Z,100.00
2023-05-19T22:47:58.508Z,100.00
2023-05-19T22:50:25.679Z,100.00
2023-05-19T22:52:52.748Z,100.00
2023-05-19T22:55:19.713Z,100.00
2023-05-19T22:57:48.045Z,100.00
2023-05-19T23:00:18.452Z,100.00
2023-05-19T23:02:45.402Z,100.00
2023-05-19T23:05:12.423Z,100.00
2023-05-19T23:07:39.321Z,100.00
2023-05-19T23:10:07.531Z,100.00
2023-05-19T23:12:34.819Z,100.00
2023-05-19T23:15:02.151Z,100.00
2023-05-19T23:17:29.016Z,100.00
2023-05-19T23:19:56.149Z,100.00
2023-05-19T23:22:23.033Z,100.00
2023-05-19T23:24:50.041Z,100.00
2023-05-19T23:27:18.131Z,100.00
2023-05-19T23:29:51.516Z,100.00
2023-05-19T23:32:18.423Z,100.00
2023-05-19T23:34:48.680Z,100.00
2023-05-19T23:37:16.933Z,100.00
2023-05-19T23:39:43.953Z,100.00
2023-05-19T23:42:11.083Z,100.00
2023-05-19T23:44:38.111Z,100.00
2023-05-19T23:47:06.241Z,100.00
2023-05-19T23:49:33.170Z,100.00
2023-05-19T23:52:00.185Z,100.00
2023-05-19T23:54:27.124Z,100.00
2023-05-19T23:56:55.772Z,100.00
2023-05-19T23:59:22.989Z,100.00
